Time;durP1;ratioP1;P1;durP2;ratioP2;P2;SDS_P1;SDS_P2;PMS_P1;PMS_P2;Temp;Humidity;BMP_temperature;BMP_pressure;BME280_temperature;BME280_humidity;BME280_pressure;Samples;Min_cycle;Max_cycle;Signal;HPM_P1;HPM_P2
2023/05/19 00:00:57;;;;;;;18.77;16.98;;;8.80;70.80;;;;;;4992223;28;20446;-58
2023/05/19 00:03:24;;;;;;;23.70;16.70;;;8.70;96.70;;;;;;4991921;28;20054;-58
2023/05/19 00:05:52;;;;;;;21.20;17.40;;;8.70;99.90;;;;;;4991893;28;20042;-58
2023/05/19 00:08:18;;;;;;;24.48;18.15;;;8.70;99.90;;;;;;4991193;28;20380;-58
2023/05/19 00:10:45;;;;;;;22.15;18.35;;;8.70;99.90;;;;;;4990785;28;20043;-58
2023/05/19 00:13:11;;;;;;;20.75;17.33;;;8.60;99.90;;;;;;4992584;28;20038;-59
2023/05/19 00:15:36;;;;;;;22.48;17.50;;;8.70;99.90;;;;;;4992655;28;20043;-58
2023/05/19 00:18:02;;;;;;;21.90;17.90;;;8.50;99.90;;;;;;4989913;28;20042;-58
2023/05/19 00:20:28;;;;;;;23.10;17.30;;;8.70;99.90;;;;;;4991326;28;20042;-58
2023/05/19 00:22:53;;;;;;;20.88;17.10;;;8.60;99.90;;;;;;4992405;28;20093;-58
2023/05/19 00:25:19;;;;;;;22.83;18.20;;;8.70;1.00;;;;;;4992739;28;20042;-58
2023/05/19 00:27:44;;;;;;;24.67;19.20;;;8.80;1.00;;;;;;4971504;28;20070;-58
2023/05/19 00:30:10;;;;;;;25.35;16.90;;;8.90;1.00;;;;;;4979030;28;20125;-58
2023/05/19 00:32:36;;;;;;;22.90;16.67;;;9.00;52.80;;;;;;4992791;28;20464;-58
2023/05/19 00:35:02;;;;;;;20.20;16.38;;;8.90;99.90;;;;;;4990257;28;20050;-58
2023/05/19 00:37:27;;;;;;;24.65;16.75;;;8.80;99.90;;;;;;4991311;28;20034;-58
2023/05/19 00:39:53;;;;;;;19.40;15.52;;;8.90;99.90;;;;;;4987463;28;20038;-58
2023/05/19 00:42:20;;;;;;;22.25;16.42;;;8.60;99.90;;;;;;4992466;28;20440;-58
2023/05/19 00:44:45;;;;;;;25.50;15.88;;;8.60;99.90;;;;;;4974395;28;20093;-58
2023/05/19 00:47:11;;;;;;;20.42;16.75;;;8.50;99.90;;;;;;4989098;28;20507;-58
2023/05/19 00:49:37;;;;;;;18.92;16.52;;;8.40;99.90;;;;;;4986885;28;20050;-58
2023/05/19 00:52:05;;;;;;;22.42;17.45;;;8.60;99.90;;;;;;4992249;28;20543;-58
2023/05/19 00:54:32;;;;;;;21.08;16.90;;;8.20;99.90;;;;;;4990628;28;20062;-58
2023/05/19 00:56:58;;;;;;;26.63;16.73;;;8.20;99.90;;;;;;4991316;28;20454;-58
2023/05/19 00:59:24;;;;;;;18.50;16.65;;;8.30;99.90;;;;;;4988783;28;20046;-58
2023/05/19 01:01:50;;;;;;;19.73;16.90;;;8.10;1.00;;;;;;4991756;28;20169;-58
2023/05/19 01:04:19;;;;;;;22.02;16.92;;;8.20;1.00;;;;;;4991892;28;20077;-59
2023/05/19 01:06:47;;;;;;;22.90;16.73;;;8.20;1.00;;;;;;4990064;28;20541;-59
2023/05/19 01:09:12;;;;;;;24.85;16.98;;;8.10;1.00;;;;;;4991957;28;20038;-58
2023/05/19 01:11:38;;;;;;;17.70;15.93;;;8.10;10.20;;;;;;4990455;28;20045;-58
2023/05/19 01:14:04;;;;;;;22.23;16.30;;;8.20;74.20;;;;;;4990221;28;20050;-58
2023/05/19 01:16:32;;;;;;;25.98;17.05;;;8.40;99.90;;;;;;4987666;28;20114;-59
2023/05/19 01:19:11;;;;;;;26.15;16.23;;;8.30;99.90;;;;;;4985481;28;20076;-59
2023/05/19 01:22:05;;;;;;;17.52;15.20;;;8.30;1.00;;;;;;4987064;28;20452;-58
2023/05/19 01:25:11;;;;;;;21.33;15.48;;;8.40;1.00;;;;;;4990788;28;20126;-58
2023/05/19 01:28:12;;;;;;;18.52;14.52;;;8.40;76.20;;;;;;4990688;28;20053;-58
2023/05/19 01:30:42;;;;;;;21.13;15.40;;;8.50;99.90;;;;;;4968410;28;20046;-59
2023/05/19 01:33:14;;;;;;;23.98;14.52;;;8.40;99.90;;;;;;4989822;28;20096;-58
2023/05/19 01:35:41;;;;;;;22.00;15.48;;;8.20;99.90;;;;;;4989539;28;20070;-58
2023/05/19 01:38:09;;;;;;;19.92;15.93;;;8.20;1.00;;;;;;4985844;28;20062;-59
2023/05/19 01:40:37;;;;;;;27.23;16.70;;;8.30;1.00;;;;;;4976781;28;20034;-58
2023/05/19 01:43:02;;;;;;;22.40;15.90;;;8.40;12.30;;;;;;4990209;28;20050;-58
2023/05/19 01:45:30;;;;;;;18.95;15.70;;;8.50;99.90;;;;;;4990611;28;20326;-58
2023/05/19 01:47:59;;;;;;;20.65;15.73;;;8.50;99.90;;;;;;4990527;28;20512;-58
2023/05/19 01:50:25;;;;;;;25.35;16.63;;;8.40;99.90;;;;;;4990476;28;20045;-59
2023/05/19 01:52:51;;;;;;;17.75;14.40;;;8.60;1.00;;;;;;4975271;28;20125;-59
2023/05/19 01:55:18;;;;;;;19.48;15.77;;;8.50;1.00;;;;;;4990782;28;20045;-59
2023/05/19 01:57:52;;;;;;;18.65;14.32;;;8.50;1.00;;;;;;4990662;28;20042;-59
2023/05/19 02:00:31;;;;;;;19.85;16.33;;;8.20;1.00;;;;;;4990625;28;20038;-58
2023/05/19 02:03:26;;;;;;;24.42;16.35;;;8.30;1.00;;;;;;4985728;28;20088;-59
2023/05/19 02:06:18;;;;;;;18.70;16.30;;;8.20;6.70;;;;;;4976704;28;20514;-59
2023/05/19 02:09:01;;;;;;;18.67;15.13;;;8.00;20.30;;;;;;4989360;28;20042;-59
2023/05/19 02:11:44;;;;;;;18.42;16.33;;;7.80;56.00;;;;;;4986493;28;20042;-58
2023/05/19 02:14:25;;;;;;;18.80;16.45;;;7.70;99.90;;;;;;4990651;28;20448;-59
2023/05/19 02:16:52;;;;;;;21.73;16.73;;;7.80;99.90;;;;;;4988812;28;20046;-58
2023/05/19 02:19:26;;;;;;;25.15;16.58;;;7.60;99.90;;;;;;4989861;28;20484;-58
2023/05/19 02:21:52;;;;;;;18.05;16.27;;;7.80;99.90;;;;;;4990054;28;20385;-58
2023/05/19 02:24:21;;;;;;;21.58;15.63;;;7.60;99.90;;;;;;4989619;28;20065;-59
2023/05/19 02:26:48;;;;;;;19.27;15.85;;;7.70;1.00;;;;;;4990216;28;20451;-58
2023/05/19 02:29:13;;;;;;;20.48;16.25;;;7.60;1.00;;;;;;4990606;28;20377;-58
2023/05/19 02:31:39;;;;;;;22.55;15.50;;;7.50;37.20;;;;;;4990260;28;20043;-58
2023/05/19 02:34:04;;;;;;;19.85;15.18;;;7.50;99.90;;;;;;4988697;28;20058;-59
2023/05/19 02:36:33;;;;;;;17.83;15.60;;;7.60;99.90;;;;;;4990093;28;20046;-58
2023/05/19 02:39:00;;;;;;;17.45;15.63;;;7.60;99.90;;;;;;4978184;28;20449;-58
2023/05/19 02:41:26;;;;;;;18.88;16.38;;;7.40;99.90;;;;;;4980052;28;20069;-58
2023/05/19 02:43:52;;;;;;;18.55;16.10;;;7.60;1.00;;;;;;4988280;28;20484;-58
2023/05/19 02:46:18;;;;;;;46.40;17.38;;;7.40;1.00;;;;;;4986797;28;20153;-58
2023/05/19 02:48:43;;;;;;;19.02;14.88;;;7.60;29.90;;;;;;4989010;28;20085;-58
2023/05/19 02:51:09;;;;;;;22.30;15.95;;;7.80;99.90;;;;;;4985403;28;20150;-58
2023/05/19 02:53:35;;;;;;;26.08;15.43;;;7.70;99.90;;;;;;4986773;28;20061;-58
2023/05/19 02:56:00;;;;;;;17.13;14.07;;;7.50;99.90;;;;;;4989755;28;20037;-58
2023/05/19 02:58:26;;;;;;;23.88;15.32;;;7.80;1.00;;;;;;4990309;28;20038;-58
2023/05/19 03:00:51;;;;;;;18.10;14.45;;;7.80;1.00;;;;;;4989737;28;20062;-59
2023/05/19 03:03:17;;;;;;;20.85;14.45;;;7.80;1.00;;;;;;4989683;28;20057;-59
2023/05/19 03:05:43;;;;;;;16.65;14.43;;;7.40;1.00;;;;;;4989816;28;20054;-59
2023/05/19 03:08:08;;;;;;;16.63;13.57;;;7.50;1.00;;;;;;4990378;28;20038;-59
2023/05/19 03:10:34;;;;;;;25.33;13.55;;;7.30;53.40;;;;;;4988387;28;20092;-59
2023/05/19 03:13:00;;;;;;;18.10;13.13;;;7.30;99.90;;;;;;4989915;28;20070;-58
2023/05/19 03:15:26;;;;;;;18.52;13.82;;;7.40;99.90;;;;;;4990018;28;20081;-59
2023/05/19 03:17:51;;;;;;;19.73;12.82;;;7.60;99.90;;;;;;4987164;28;20083;-58
2023/05/19 03:20:17;;;;;;;22.98;13.57;;;7.60;99.90;;;;;;4987773;28;20574;-58
2023/05/19 03:22:42;;;;;;;22.42;12.32;;;7.40;1.00;;;;;;4988050;28;20088;-58
2023/05/19 03:25:08;;;;;;;25.65;13.63;;;7.70;1.00;;;;;;4989847;28;20081;-59
2023/05/19 03:27:34;;;;;;;24.13;12.80;;;7.50;8.30;;;;;;4989564;28;20039;-58
2023/05/19 03:30:00;;;;;;;19.02;12.93;;;7.80;75.00;;;;;;4989976;28;20102;-58
2023/05/19 03:32:25;;;;;;;16.50;12.38;;;7.90;99.90;;;;;;4989766;28;20096;-59
2023/05/19 03:34:51;;;;;;;17.08;13.43;;;7.80;99.90;;;;;;4989586;28;20046;-58
2023/05/19 03:37:16;;;;;;;18.35;13.55;;;7.70;99.90;;;;;;4989264;28;20057;-59
2023/05/19 03:39:42;;;;;;;19.05;13.15;;;7.90;99.90;;;;;;4988094;28;20599;-59
2023/05/19 03:42:08;;;;;;;19.17;13.63;;;7.80;99.90;;;;;;4989981;28;20141;-59
2023/05/19 03:44:33;;;;;;;17.27;14.15;;;7.60;99.90;;;;;;4990037;28;20042;-59
2023/05/19 03:46:59;;;;;;;17.50;15.70;;;7.60;99.90;;;;;;4989345;28;20058;-58
2023/05/19 03:49:24;;;;;;;24.60;15.88;;;7.40;99.90;;;;;;4989275;28;20050;-59
2023/05/19 03:51:50;;;;;;;20.30;14.82;;;7.40;99.90;;;;;;4987668;28;20081;-58
2023/05/19 03:54:16;;;;;;;24.73;13.80;;;7.90;99.90;;;;;;4987923;28;20046;-59
2023/05/19 03:56:42;;;;;;;22.27;13.38;;;7.60;99.90;;;;;;4992195;28;20506;-59
2023/05/19 03:59:09;;;;;;;24.50;14.45;;;7.60;99.90;;;;;;4991267;28;20034;-59
2023/05/19 04:01:35;;;;;;;18.80;14.05;;;7.50;99.90;;;;;;4992784;28;20057;-58
2023/05/19 04:04:01;;;;;;;16.23;13.88;;;7.80;99.90;;;;;;4992661;28;20045;-59
2023/05/19 04:06:27;;;;;;;18.60;12.68;;;7.70;99.90;;;;;;4992865;28;20407;-59
2023/05/19 04:08:52;;;;;;;17.02;12.63;;;7.60;99.90;;;;;;4992848;28;20042;-59
2023/05/19 04:11:21;;;;;;;16.23;13.23;;;7.80;99.90;;;;;;4990967;28;20065;-59
2023/05/19 04:13:46;;;;;;;22.02;12.93;;;7.80;99.90;;;;;;4991130;28;20050;-59
2023/05/19 04:16:12;;;;;;;15.48;12.85;;;7.80;99.90;;;;;;4990430;28;20534;-59
2023/05/19 04:18:38;;;;;;;22.90;12.95;;;8.10;99.90;;;;;;4992315;28;20175;-58
2023/05/19 04:21:04;;;;;;;17.75;12.35;;;8.20;99.90;;;;;;4986654;28;20495;-59
2023/05/19 04:23:29;;;;;;;20.05;12.73;;;8.20;99.90;;;;;;4976814;28;20122;-59
2023/05/19 04:25:56;;;;;;;15.10;12.25;;;7.90;99.90;;;;;;4992379;28;20034;-59
2023/05/19 04:28:22;;;;;;;24.42;13.20;;;8.10;99.90;;;;;;4990838;28;20054;-59
2023/05/19 04:30:49;;;;;;;24.50;12.90;;;8.30;99.90;;;;;;4992084;28;20445;-59
2023/05/19 04:33:15;;;;;;;21.67;13.93;;;8.20;99.90;;;;;;4991873;28;20766;-59
2023/05/19 04:35:41;;;;;;;18.38;12.60;;;7.90;99.90;;;;;;4990592;28;20057;-59
2023/05/19 04:38:06;;;;;;;27.83;14.15;;;8.20;99.90;;;;;;4986993;28;20041;-59
2023/05/19 04:40:32;;;;;;;26.55;12.75;;;8.40;99.90;;;;;;4990994;28;20038;-59
2023/05/19 04:42:57;;;;;;;23.48;13.15;;;8.60;99.90;;;;;;4992603;28;20521;-59
2023/05/19 04:45:24;;;;;;;23.33;12.85;;;8.20;99.90;;;;;;4989747;28;20546;-59
2023/05/19 04:47:51;;;;;;;18.45;12.60;;;8.60;99.90;;;;;;4991735;28;20583;-59
2023/05/19 04:50:17;;;;;;;21.73;12.65;;;8.70;99.90;;;;;;4989708;28;20046;-59
2023/05/19 04:52:46;;;;;;;24.45;11.25;;;8.50;99.90;;;;;;4986009;28;20038;-59
2023/05/19 04:55:11;;;;;;;19.58;12.02;;;9.00;99.90;;;;;;4988858;28;20133;-59
2023/05/19 04:57:37;;;;;;;21.60;11.55;;;9.20;99.90;;;;;;4988768;28;20121;-59
2023/05/19 05:00:07;;;;;;;22.52;12.32;;;8.70;99.90;;;;;;4988334;28;20066;-59
2023/05/19 05:02:33;;;;;;;23.77;12.57;;;9.40;99.90;;;;;;4984953;28;20125;-59
2023/05/19 05:04:58;;;;;;;26.75;12.63;;;9.00;99.90;;;;;;4986048;28;20125;-59
2023/05/19 05:07:24;;;;;;;27.67;11.88;;;9.50;99.90;;;;;;4985327;28;20518;-59
2023/05/19 05:09:50;;;;;;;26.75;12.52;;;9.60;99.90;;;;;;4990876;28;20044;-59
2023/05/19 05:12:20;;;;;;;23.65;12.48;;;9.80;99.90;;;;;;4987089;28;20396;-59
2023/05/19 05:14:46;;;;;;;28.00;12.95;;;9.40;99.90;;;;;;4987714;28;20034;-59
2023/05/19 05:17:12;;;;;;;25.77;13.50;;;9.70;99.90;;;;;;4985947;28;20089;-59
2023/05/19 05:19:38;;;;;;;31.38;13.13;;;9.60;99.90;;;;;;4988944;28;20051;-59
2023/05/19 05:22:05;;;;;;;27.13;13.65;;;9.60;99.90;;;;;;4985783;28;20492;-59
2023/05/19 05:24:31;;;;;;;29.27;13.25;;;9.70;99.90;;;;;;4989954;28;20046;-59
2023/05/19 05:26:57;;;;;;;25.15;12.98;;;10.40;99.90;;;;;;4985430;28;20151;-59
2023/05/19 05:29:24;;;;;;;30.75;13.65;;;10.10;99.90;;;;;;4983341;28;20050;-59
2023/05/19 05:31:49;;;;;;;32.60;13.32;;;10.20;99.90;;;;;;4986963;28;20093;-59
2023/05/19 05:34:15;;;;;;;22.77;13.18;;;10.10;99.90;;;;;;4985742;28;20058;-59
2023/05/19 05:36:41;;;;;;;31.05;13.85;;;10.30;99.90;;;;;;4986997;28;20081;-58
2023/05/19 05:39:06;;;;;;;22.73;12.65;;;10.40;99.90;;;;;;4986306;28;20798;-59
2023/05/19 05:41:34;;;;;;;26.50;14.38;;;10.30;99.90;;;;;;4983764;28;20046;-59
2023/05/19 05:44:03;;;;;;;29.30;14.18;;;10.40;99.90;;;;;;4983453;28;20482;-59
2023/05/19 05:46:29;;;;;;;25.08;14.27;;;10.90;99.90;;;;;;4986501;28;20054;-59
2023/05/19 05:48:55;;;;;;;28.35;16.17;;;11.10;99.90;;;;;;4984453;28;20042;-59
2023/05/19 05:51:23;;;;;;;21.42;14.70;;;10.60;99.90;;;;;;4983145;28;20041;-59
2023/05/19 05:53:53;;;;;;;27.60;16.25;;;11.10;99.90;;;;;;4983770;28;20109;-59
2023/05/19 05:56:19;;;;;;;28.90;15.30;;;11.30;99.90;;;;;;4982008;28;20046;-59
2023/05/19 05:58:45;;;;;;;25.42;15.25;;;11.40;99.90;;;;;;4980709;28;20076;-59
2023/05/19 06:01:11;;;;;;;30.83;15.98;;;10.90;99.90;;;;;;4983754;28;20046;-59
2023/05/19 06:03:43;;;;;;;28.55;15.60;;;11.50;99.90;;;;;;4987617;28;20432;-59
2023/05/19 06:06:09;;;;;;;30.58;15.98;;;11.10;99.90;;;;;;4987263;28;20089;-58
2023/05/19 06:08:35;;;;;;;26.17;15.10;;;11.20;99.90;;;;;;4982820;28;20508;-58
2023/05/19 06:11:07;;;;;;;24.63;16.02;;;11.70;99.90;;;;;;4981324;28;20113;-59
2023/05/19 06:13:36;;;;;;;26.95;15.68;;;11.80;99.90;;;;;;4981975;28;20050;-58
2023/05/19 06:16:02;;;;;;;29.75;16.15;;;11.50;99.90;;;;;;4984305;28;20436;-58
2023/05/19 06:18:28;;;;;;;23.08;15.88;;;11.50;99.90;;;;;;4980909;28;20042;-59
2023/05/19 06:20:53;;;;;;;22.27;14.77;;;11.90;99.90;;;;;;4985230;28;20125;-58
2023/05/19 06:23:19;;;;;;;21.30;14.88;;;11.90;99.90;;;;;;4986595;28;20126;-58
2023/05/19 06:25:44;;;;;;;23.58;14.65;;;11.90;99.90;;;;;;4984096;28;20049;-59
2023/05/19 06:28:10;;;;;;;24.52;15.27;;;11.80;99.90;;;;;;4980281;28;20050;-58
2023/05/19 06:30:36;;;;;;;22.42;14.23;;;12.00;99.90;;;;;;4999440;28;20045;-58
2023/05/19 06:33:04;;;;;;;21.15;13.93;;;12.10;99.90;;;;;;4985246;28;20069;-58
2023/05/19 06:35:30;;;;;;;16.83;12.55;;;12.20;99.90;;;;;;4981406;28;20038;-59
2023/05/19 06:37:56;;;;;;;18.52;12.05;;;12.40;99.90;;;;;;4983778;28;20038;-59
2023/05/19 06:40:22;;;;;;;18.73;11.35;;;12.60;99.90;;;;;;4999066;28;20064;-59
2023/05/19 06:42:48;;;;;;;21.25;11.50;;;12.60;99.90;;;;;;4984208;28;20085;-58
2023/05/19 06:45:14;;;;;;;18.35;11.80;;;12.80;99.90;;;;;;4983803;28;20462;-59
2023/05/19 06:47:41;;;;;;;20.35;12.00;;;12.80;99.90;;;;;;4985404;28;20050;-58
2023/05/19 06:50:08;;;;;;;20.05;13.10;;;12.90;99.90;;;;;;4985435;28;20053;-58
2023/05/19 06:52:34;;;;;;;21.13;10.90;;;13.20;99.90;;;;;;4983670;28;20046;-58
2023/05/19 06:54:59;;;;;;;19.25;10.50;;;13.40;99.90;;;;;;4983404;28;20539;-59
2023/05/19 06:57:25;;;;;;;20.15;9.88;;;13.60;99.90;;;;;;4986629;28;20117;-59
2023/05/19 06:59:51;;;;;;;23.48;11.15;;;13.70;99.90;;;;;;4986060;28;20112;-59
2023/05/19 07:02:17;;;;;;;16.27;8.32;;;13.90;99.90;;;;;;4984382;28;20043;-63
2023/05/19 07:04:43;;;;;;;20.75;8.55;;;14.10;99.90;;;;;;4985794;28;20125;-63
2023/05/19 07:07:08;;;;;;;16.55;8.60;;;14.30;99.90;;;;;;4980105;28;20042;-64
2023/05/19 07:09:34;;;;;;;16.10;8.13;;;14.40;99.90;;;;;;4980957;28;20739;-63
2023/05/19 07:12:00;;;;;;;19.05;7.97;;;15.50;1.00;;;;;;4989762;28;20054;-64
2023/05/19 07:14:26;;;;;;;15.60;6.97;;;14.80;99.90;;;;;;4985578;28;20046;-64
2023/05/19 07:16:51;;;;;;;14.68;6.65;;;15.00;1.00;;;;;;4985410;28;20046;-64
2023/05/19 07:19:20;;;;;;;13.48;6.50;;;15.30;99.90;;;;;;4987943;28;20423;-64
2023/05/19 07:21:46;;;;;;;14.00;6.03;;;15.60;65.40;;;;;;4986755;28;20035;-65
2023/05/19 07:24:12;;;;;;;19.42;6.63;;;15.80;1.00;;;;;;4984491;28;20050;-65
2023/05/19 07:26:38;;;;;;;13.88;5.78;;;16.00;1.00;;;;;;4984094;28;20144;-64
2023/05/19 07:29:03;;;;;;;14.90;5.57;;;16.10;32.80;;;;;;4988412;28;20507;-65
2023/05/19 07:31:29;;;;;;;10.55;5.13;;;16.30;99.90;;;;;;4989953;28;20050;-65
2023/05/19 07:33:56;;;;;;;10.95;4.90;;;16.40;1.00;;;;;;4987898;28;20121;-64
2023/05/19 07:36:21;;;;;;;11.30;4.93;;;16.60;99.90;;;;;;4990576;28;20093;-64
2023/05/19 07:38:47;;;;;;;10.85;4.30;;;16.70;99.90;;;;;;4987559;28;20034;-64
2023/05/19 07:41:13;;;;;;;9.50;4.60;;;16.70;38.90;;;;;;4990758;28;20479;-64
2023/05/19 07:43:38;;;;;;;10.00;4.50;;;16.80;1.00;;;;;;4989549;28;20038;-65
2023/05/19 07:46:05;;;;;;;12.68;4.50;;;16.90;1.00;;;;;;4989674;28;20085;-64
2023/05/19 07:48:30;;;;;;;14.52;4.82;;;17.00;99.90;;;;;;4986595;28;20042;-65
2023/05/19 07:50:56;;;;;;;15.02;4.45;;;17.20;99.90;;;;;;4987934;28;20037;-65
2023/05/19 07:53:22;;;;;;;10.65;4.10;;;17.30;99.90;;;;;;4985504;28;20408;-65
2023/05/19 07:55:48;;;;;;;15.77;4.30;;;17.50;99.90;;;;;;4985536;28;20042;-64
2023/05/19 07:58:14;;;;;;;9.43;3.65;;;17.70;99.90;;;;;;4988938;28;20034;-64
2023/05/19 08:00:44;;;;;;;10.82;4.05;;;18.00;92.90;;;;;;4989029;28;20038;-64
2023/05/19 08:03:10;;;;;;;12.20;4.43;;;17.60;39.20;;;;;;4990863;28;20046;-64
2023/05/19 08:05:35;;;;;;;9.85;4.18;;;17.70;7.90;;;;;;4988234;28;20042;-64
2023/05/19 08:08:02;;;;;;;10.82;4.07;;;17.70;1.00;;;;;;4987833;28;20409;-64
2023/05/19 08:10:27;;;;;;;14.02;4.43;;;17.70;1.00;;;;;;4990516;28;20038;-64
2023/05/19 08:12:53;;;;;;;10.00;4.10;;;17.80;1.00;;;;;;4987978;28;20433;-64
2023/05/19 08:15:20;;;;;;;10.75;4.25;;;17.70;1.00;;;;;;4986482;28;20077;-65
2023/05/19 08:17:45;;;;;;;13.45;4.13;;;18.20;1.00;;;;;;4977708;28;20038;-65
2023/05/19 08:20:11;;;;;;;10.45;3.90;;;18.30;1.00;;;;;;4982014;28;20282;-65
2023/05/19 08:22:37;;;;;;;14.80;4.40;;;18.50;1.00;;;;;;4985802;28;20035;-65
2023/05/19 08:25:03;;;;;;;13.57;3.95;;;18.90;1.00;;;;;;4988126;28;20058;-66
2023/05/19 08:27:29;;;;;;;10.05;4.10;;;19.10;1.00;;;;;;4989996;28;20057;-66
2023/05/19 08:29:56;;;;;;;9.50;4.32;;;19.10;1.00;;;;;;4990547;28;20038;-67
2023/05/19 08:32:21;;;;;;;11.55;4.38;;;18.90;1.00;;;;;;4984278;28;20046;-65
2023/05/19 08:34:47;;;;;;;10.55;4.45;;;18.90;1.00;;;;;;4987687;28;20550;-65
2023/05/19 08:37:12;;;;;;;10.10;4.00;;;19.00;1.00;;;;;;4986512;28;20049;-65
2023/05/19 08:39:38;;;;;;;11.45;4.32;;;19.00;1.00;;;;;;4985559;28;20054;-66
2023/05/19 08:42:06;;;;;;;8.38;3.85;;;19.30;1.00;;;;;;4986941;28;20418;-66
2023/05/19 08:44:32;;;;;;;8.50;3.65;;;19.30;1.00;;;;;;4982283;28;20461;-66
2023/05/19 08:47:01;;;;;;;9.23;3.83;;;19.30;1.00;;;;;;4986185;28;20173;-66
2023/05/19 08:49:31;;;;;;;9.40;3.95;;;19.20;1.00;;;;;;4988958;28;20642;-66
2023/05/19 08:52:10;;;;;;;9.50;4.00;;;19.20;1.00;;;;;;4987716;28;20046;-66
2023/05/19 08:55:03;;;;;;;9.25;4.22;;;19.20;1.00;;;;;;4987286;28;20043;-65
2023/05/19 08:57:29;;;;;;;10.70;4.15;;;19.10;1.00;;;;;;4983719;28;20256;-66
2023/05/19 08:59:56;;;;;;;7.50;3.50;;;19.00;1.00;;;;;;4986869;28;20046;-66
2023/05/19 09:02:22;;;;;;;10.68;3.85;;;19.00;1.00;;;;;;4986678;28;20069;-66
2023/05/19 09:04:48;;;;;;;9.52;4.20;;;19.40;1.00;;;;;;4985934;28;20061;-65
2023/05/19 09:07:14;;;;;;;17.02;4.70;;;18.90;1.00;;;;;;4987158;28;20046;-66
2023/05/19 09:09:42;;;;;;;8.73;4.10;;;18.80;1.00;;;;;;4991147;28;20070;-66
2023/05/19 09:12:12;;;;;;;13.60;4.65;;;18.90;1.00;;;;;;4989188;28;20046;-65
2023/05/19 09:14:38;;;;;;;8.82;4.13;;;19.10;1.00;;;;;;4991228;28;20053;-65
2023/05/19 09:17:04;;;;;;;8.70;4.40;;;18.80;99.90;;;;;;4982295;28;20035;-66
2023/05/19 09:19:30;;;;;;;11.57;4.28;;;18.60;99.90;;;;;;4988224;28;20042;-66
2023/05/19 09:22:02;;;;;;;12.00;4.63;;;18.50;99.90;;;;;;4985671;28;20038;-66
2023/05/19 09:24:27;;;;;;;13.60;4.57;;;18.60;99.90;;;;;;4985897;28;20054;-66
2023/05/19 09:26:56;;;;;;;11.45;4.78;;;18.60;99.90;;;;;;4968069;28;20514;-65
2023/05/19 09:29:22;;;;;;;9.43;4.38;;;18.80;99.90;;;;;;4987192;28;20226;-66
2023/05/19 09:31:53;;;;;;;8.77;4.40;;;18.70;99.90;;;;;;4969606;28;20544;-66
2023/05/19 09:34:21;;;;;;;10.27;4.38;;;18.80;99.90;;;;;;4986066;28;20043;-66
2023/05/19 09:36:52;;;;;;;10.35;4.70;;;18.80;99.90;;;;;;4984762;28;20030;-65
2023/05/19 09:39:22;;;;;;;10.32;4.90;;;18.90;99.90;;;;;;4985767;28;20050;-65
2023/05/19 09:41:57;;;;;;;10.63;4.80;;;18.80;99.90;;;;;;4980949;28;20515;-66
2023/05/19 09:44:30;;;;;;;11.63;4.70;;;18.70;99.90;;;;;;4989196;28;20046;-66
2023/05/19 09:46:57;;;;;;;11.35;4.68;;;18.60;99.90;;;;;;4980321;28;20050;-66
2023/05/19 09:49:24;;;;;;;10.23;4.70;;;18.50;99.90;;;;;;4983823;28;20124;-65
2023/05/19 09:51:53;;;;;;;11.52;4.95;;;18.60;99.90;;;;;;4990310;28;20030;-65
2023/05/19 09:54:21;;;;;;;13.27;5.30;;;18.80;99.90;;;;;;4985203;28;20044;-66
2023/05/19 09:57:01;;;;;;;9.98;4.88;;;19.00;99.90;;;;;;4985753;28;20038;-66
2023/05/19 09:59:27;;;;;;;13.25;5.20;;;19.10;99.90;;;;;;4986348;28;20042;-65
2023/05/19 10:01:58;;;;;;;10.65;5.00;;;19.50;99.90;;;;;;4984173;28;20546;-65
2023/05/19 10:04:27;;;;;;;10.48;4.68;;;19.10;99.90;;;;;;4982049;28;20045;-66
2023/05/19 10:06:58;;;;;;;11.27;4.72;;;19.20;99.90;;;;;;4984547;28;20038;-66
2023/05/19 10:09:25;;;;;;;10.88;4.40;;;19.30;99.90;;;;;;4983618;28;20473;-66
2023/05/19 10:11:55;;;;;;;14.98;5.13;;;19.20;99.90;;;;;;4986104;28;20499;-66
2023/05/19 10:14:26;;;;;;;13.55;4.90;;;19.20;99.90;;;;;;4982647;28;20042;-66
2023/05/19 10:16:53;;;;;;;11.85;5.07;;;19.00;99.90;;;;;;4998323;28;20039;-66
2023/05/19 10:19:23;;;;;;;13.52;5.00;;;18.90;99.90;;;;;;4985219;28;20062;-66
2023/05/19 10:21:49;;;;;;;10.32;5.22;;;18.80;99.90;;;;;;4984582;28;20070;-66
2023/05/19 10:24:16;;;;;;;20.10;5.00;;;19.40;99.90;;;;;;4985276;28;20049;-66
2023/05/19 10:26:46;;;;;;;10.90;4.85;;;18.80;99.90;;;;;;4988978;28;20484;-65
2023/05/19 10:29:16;;;;;;;10.20;4.82;;;19.00;99.90;;;;;;4977031;28;20133;-65
2023/05/19 10:31:43;;;;;;;9.13;4.55;;;19.10;99.90;;;;;;4985882;28;20042;-65
2023/05/19 10:34:20;;;;;;;11.43;4.43;;;19.10;99.90;;;;;;4983507;28;20871;-65
2023/05/19 10:37:09;;;;;;;11.00;5.00;;;19.20;99.90;;;;;;4985694;28;20049;-65
2023/05/19 10:39:35;;;;;;;11.27;4.80;;;19.10;99.90;;;;;;4985116;28;20046;-65
2023/05/19 10:42:42;;;;;;;8.10;4.28;;;19.10;99.90;;;;;;4986801;28;20061;-65
2023/05/19 10:45:18;;;;;;;7.88;4.38;;;19.00;99.90;;;;;;4979819;28;20057;-65
2023/05/19 10:47:44;;;;;;;8.32;4.47;;;19.00;99.90;;;;;;4983121;28;20093;-65
2023/05/19 10:50:10;;;;;;;10.60;4.40;;;18.90;99.90;;;;;;4986966;28;20049;-65
2023/05/19 10:52:38;;;;;;;8.18;4.65;;;18.90;99.90;;;;;;4979584;28;20116;-66
2023/05/19 10:55:07;;;;;;;11.05;4.38;;;18.80;99.90;;;;;;4978012;28;20130;-65
2023/05/19 10:57:33;;;;;;;10.82;4.22;;;18.80;99.90;;;;;;4979035;28;20117;-66
2023/05/19 11:00:10;;;;;;;11.82;4.72;;;18.80;99.90;;;;;;4980968;28;20381;-66
2023/05/19 11:02:39;;;;;;;14.10;4.45;;;18.80;99.90;;;;;;4985173;28;20054;-65
2023/05/19 11:05:19;;;;;;;7.30;4.10;;;18.80;99.90;;;;;;4983091;28;20053;-66
2023/05/19 11:07:55;;;;;;;10.27;4.30;;;18.90;99.90;;;;;;4988485;28;20404;-65
2023/05/19 11:10:24;;;;;;;10.88;5.15;;;18.80;99.90;;;;;;4985494;28;20046;-65
2023/05/19 11:12:50;;;;;;;11.57;5.07;;;18.70;99.90;;;;;;4985511;28;20101;-66
2023/05/19 11:15:16;;;;;;;16.70;4.95;;;18.50;99.90;;;;;;4989292;28;20089;-66
2023/05/19 11:17:44;;;;;;;13.27;5.30;;;18.40;99.90;;;;;;4987316;28;20116;-66
2023/05/19 11:20:33;;;;;;;15.45;5.30;;;18.70;99.90;;;;;;4989507;28;20528;-66
2023/05/19 11:23:13;;;;;;;11.18;5.35;;;18.30;99.90;;;;;;4988390;28;20443;-66
2023/05/19 11:25:50;;;;;;;11.45;5.53;;;18.30;99.90;;;;;;4984707;28;20046;-65
2023/05/19 11:28:26;;;;;;;13.10;5.47;;;18.20;99.90;;;;;;4983337;28;20038;-65
2023/05/19 11:30:56;;;;;;;17.33;5.82;;;18.10;1.00;;;;;;4982048;28;20558;-66
2023/05/19 11:33:25;;;;;;;11.88;5.50;;;18.40;1.00;;;;;;4988372;28;20101;-66
2023/05/19 11:35:53;;;;;;;15.90;5.18;;;18.20;1.00;;;;;;4990029;28;20178;-66
2023/05/19 11:38:19;;;;;;;15.45;4.95;;;18.20;1.00;;;;;;4991185;28;20484;-66
2023/05/19 11:40:46;;;;;;;10.77;5.20;;;18.10;1.00;;;;;;4981345;28;20046;-65
2023/05/19 11:43:12;;;;;;;10.75;5.28;;;17.90;1.00;;;;;;4990101;28;20038;-66
2023/05/19 11:45:38;;;;;;;11.63;5.57;;;17.80;1.00;;;;;;4990815;28;20096;-65
2023/05/19 11:48:04;;;;;;;10.50;5.13;;;17.70;1.00;;;;;;4990262;28;20113;-65
2023/05/19 11:50:31;;;;;;;11.45;4.65;;;17.80;1.00;;;;;;4991692;28;20069;-65
2023/05/19 11:52:59;;;;;;;12.00;4.80;;;17.80;1.00;;;;;;4990517;28;20035;-66
2023/05/19 11:55:25;;;;;;;12.10;5.28;;;17.90;1.00;;;;;;4987976;28;20463;-66
2023/05/19 11:57:56;;;;;;;10.35;4.63;;;18.00;1.00;;;;;;5000338;28;20121;-65
2023/05/19 12:00:22;;;;;;;13.52;5.63;;;18.00;1.00;;;;;;4989356;28;20058;-66
2023/05/19 12:02:47;;;;;;;11.73;4.70;;;17.90;1.00;;;;;;4989942;28;20080;-66
2023/05/19 12:05:21;;;;;;;14.77;5.28;;;17.90;1.00;;;;;;4990941;28;20050;-65
2023/05/19 12:07:49;;;;;;;14.30;4.80;;;17.90;1.00;;;;;;4985342;28;20435;-65
2023/05/19 12:10:29;;;;;;;15.27;5.25;;;17.90;1.00;;;;;;4990526;28;20034;-66
2023/05/19 12:12:56;;;;;;;13.00;5.07;;;18.00;1.00;;;;;;4990382;28;20038;-65
2023/05/19 12:15:22;;;;;;;15.65;5.10;;;17.90;1.00;;;;;;4989955;28;20559;-65
2023/05/19 12:17:49;;;;;;;16.38;5.13;;;17.90;1.00;;;;;;4988055;28;20121;-66
2023/05/19 12:20:15;;;;;;;12.95;4.88;;;17.90;1.00;;;;;;4989942;28;20042;-66
2023/05/19 12:22:40;;;;;;;11.23;5.15;;;17.70;1.00;;;;;;4985656;28;20104;-65
2023/05/19 12:25:06;;;;;;;16.90;5.28;;;17.60;1.00;;;;;;5002152;28;20065;-66
2023/05/19 12:27:36;;;;;;;12.80;5.57;;;17.50;1.00;;;;;;4985925;28;20483;-65
2023/05/19 12:30:03;;;;;;;10.55;5.28;;;17.50;1.00;;;;;;4990227;28;20486;-65
2023/05/19 12:32:28;;;;;;;10.82;5.30;;;17.50;1.00;;;;;;4986713;28;20053;-65
2023/05/19 12:34:57;;;;;;;15.18;4.88;;;17.50;1.00;;;;;;4986278;28;20047;-65
2023/05/19 12:37:28;;;;;;;11.15;4.55;;;17.70;1.00;;;;;;4990932;28;20514;-65
2023/05/19 12:39:55;;;;;;;12.40;4.30;;;17.30;1.00;;;;;;4990665;28;20038;-65
2023/05/19 12:42:22;;;;;;;13.90;4.80;;;17.20;1.00;;;;;;4988092;28;20046;-65
2023/05/19 12:44:51;;;;;;;8.77;4.30;;;17.20;1.00;;;;;;4989312;28;20081;-65